createdAt,value
2019-04-21T00:00:58.538Z,1022.89
2019-04-21T00:01:56.393Z,1022.87
2019-04-21T00:02:55.302Z,1022.84
2019-04-21T00:04:03.718Z,1022.84
2019-04-21T00:05:18.808Z,1022.83
2019-04-21T00:06:15.630Z,1022.88
2019-04-21T00:07:15.721Z,1022.83
2019-04-21T00:08:26.600Z,1022.86
2019-04-21T00:09:19.113Z,1022.86
2019-04-21T00:10:18.676Z,1022.80
2019-04-21T00:11:18.443Z,1022.79
2019-04-21T00:12:15.064Z,1022.79
2019-04-21T00:13:08.105Z,1022.79
2019-04-21T00:14:05.729Z,1022.76
2019-04-21T00:15:08.360Z,1022.74
2019-04-21T00:16:00.363Z,1022.73
2019-04-21T00:17:00.627Z,1022.74
2019-04-21T00:18:00.460Z,1022.81
2019-04-21T00:19:02.554Z,1022.81
2019-04-21T00:20:05.573Z,1022.78
2019-04-21T00:20:58.014Z,1022.74
2019-04-21T00:22:05.967Z,1022.79
2019-04-21T00:23:13.061Z,1022.77
2019-04-21T00:24:11.298Z,1022.75
2019-04-21T00:25:11.722Z,1022.79
2019-04-21T00:26:04.014Z,1022.74
2019-04-21T00:27:12.675Z,1022.71
2019-04-21T00:28:16.873Z,1022.73
2019-04-21T00:29:21.005Z,1022.68
2019-04-21T00:30:15.809Z,1022.68
2019-04-21T00:31:09.830Z,1022.65
2019-04-21T00:32:11.492Z,1022.67
2019-04-21T00:33:05.221Z,1022.68
2019-04-21T00:33:55.107Z,1022.73
2019-04-21T00:35:00.874Z,1022.67
2019-04-21T00:36:03.079Z,1022.63
2019-04-21T00:37:08.290Z,1022.63
2019-04-21T00:38:19.592Z,1022.67
2019-04-21T00:39:30.191Z,1022.62
2019-04-21T00:40:16.177Z,1022.63
2019-04-21T00:41:18.803Z,1022.62
2019-04-21T00:42:14.004Z,1022.59
2019-04-21T00:43:13.682Z,1022.57
2019-04-21T00:44:08.745Z,1022.55
2019-04-21T00:45:10.729Z,1022.55
2019-04-21T00:46:04.899Z,1022.53
2019-04-21T00:47:05.461Z,1022.54
2019-04-21T00:48:21.875Z,1022.54
2019-04-21T00:49:14.140Z,1022.53
2019-04-21T00:50:12.955Z,1022.56
2019-04-21T00:52:32.689Z,1022.55
2019-04-21T00:53:22.208Z,1022.52
2019-04-21T00:54:16.767Z,1022.53
2019-04-21T00:56:35.358Z,1022.48
2019-04-21T00:57:17.786Z,1022.50
2019-04-21T00:58:18.390Z,1022.47
2019-04-21T00:59:20.099Z,1022.49
2019-04-21T01:00:20.366Z,1022.45
2019-04-21T01:01:15.126Z,1022.51
2019-04-21T01:02:09.086Z,1022.49
2019-04-21T01:03:24.619Z,1022.49
2019-04-21T01:04:15.572Z,1022.50
2019-04-21T01:05:18.601Z,1022.50
2019-04-21T01:06:18.791Z,1022.50
2019-04-21T01:07:12.500Z,1022.48
2019-04-21T01:08:13.289Z,1022.46
2019-04-21T01:09:15.223Z,1022.46
2019-04-21T01:10:09.596Z,1022.45
2019-04-21T01:11:19.485Z,1022.44
2019-04-21T01:12:15.554Z,1022.43
2019-04-21T01:13:16.936Z,1022.45
2019-04-21T01:14:22.233Z,1022.45
2019-04-21T01:15:24.617Z,1022.44
2019-04-21T01:16:20.825Z,1022.42
2019-04-21T01:17:17.857Z,1022.48
2019-04-21T01:18:16.494Z,1022.42
2019-04-21T01:19:12.017Z,1022.46
2019-04-21T01:20:07.440Z,1022.40
2019-04-21T01:20:54.004Z,1022.42
2019-04-21T01:21:52.986Z,1022.42
2019-04-21T01:22:53.739Z,1022.44
2019-04-21T01:23:55.630Z,1022.43
2019-04-21T01:25:04.536Z,1022.44
2019-04-21T01:26:10.604Z,1022.46
2019-04-21T01:27:04.716Z,1022.42
2019-04-21T01:28:15.135Z,1022.41
2019-04-21T01:29:13.246Z,1022.45
2019-04-21T01:30:18.806Z,1022.40
2019-04-21T01:31:13.673Z,1022.41
2019-04-21T01:32:19.630Z,1022.43
2019-04-21T01:33:15.305Z,1022.41
2019-04-21T01:34:19.110Z,1022.42
2019-04-21T01:35:17.860Z,1022.42
2019-04-21T01:36:11.019Z,1022.42
2019-04-21T01:37:10.725Z,1022.37
2019-04-21T01:38:16.662Z,1022.37
2019-04-21T01:39:19.709Z,1022.37
2019-04-21T01:40:22.951Z,1022.40
2019-04-21T01:41:19.828Z,1022.37
2019-04-21T01:42:15.723Z,1022.32
2019-04-21T01:43:13.407Z,1022.35
2019-04-21T01:44:22.478Z,1022.31
2019-04-21T01:45:20.057Z,1022.28
2019-04-21T01:47:13.148Z,1022.29
2019-04-21T01:48:10.344Z,1022.25
2019-04-21T01:49:09.286Z,1022.23
2019-04-21T01:50:02.687Z,1022.24
2019-04-21T01:51:11.440Z,1022.24
2019-04-21T01:52:26.941Z,1022.25
2019-04-21T01:53:17.656Z,1022.27
2019-04-21T01:54:15.994Z,1022.25
2019-04-21T01:55:12.391Z,1022.24
2019-04-21T01:56:11.754Z,1022.21
2019-04-21T01:57:12.999Z,1022.23
2019-04-21T01:58:08.163Z,1022.21
2019-04-21T01:59:02.680Z,1022.20
2019-04-21T02:00:04.899Z,1022.22
2019-04-21T02:01:08.753Z,1022.21
2019-04-21T02:02:14.211Z,1022.17
2019-04-21T02:03:31.484Z,1022.17
2019-04-21T02:04:16.702Z,1022.18
2019-04-21T02:05:21.246Z,1022.17
2019-04-21T02:06:17.095Z,1022.20
2019-04-21T02:07:15.133Z,1022.18
2019-04-21T02:08:13.452Z,1022.24
2019-04-21T02:09:09.789Z,1022.20
2019-04-21T02:10:21.136Z,1022.21
2019-04-21T02:11:16.962Z,1022.18
2019-04-21T02:12:13.480Z,1022.19
2019-04-21T02:13:13.143Z,1022.23
2019-04-21T02:14:19.595Z,1022.20
2019-04-21T02:15:19.772Z,1022.21
2019-04-21T02:16:21.547Z,1022.20
2019-04-21T02:17:13.277Z,1022.22
2019-04-21T02:18:12.030Z,1022.16
2019-04-21T02:19:09.150Z,1022.25
2019-04-21T02:20:08.128Z,1022.20
2019-04-21T02:21:01.984Z,1022.21
2019-04-21T02:22:15.013Z,1022.17
2019-04-21T02:24:27.230Z,1022.21
2019-04-21T02:25:15.140Z,1022.13
2019-04-21T02:26:16.457Z,1022.16
2019-04-21T02:27:17.397Z,1022.20
2019-04-21T02:28:24.110Z,1022.14
2019-04-21T02:29:19.584Z,1022.12
2019-04-21T02:30:29.382Z,1022.17
2019-04-21T02:34:23.925Z,1022.18
2019-04-21T02:35:30.367Z,1022.16
2019-04-21T02:36:30.879Z,1022.16
2019-04-21T02:38:30.253Z,1022.14
2019-04-21T02:39:27.980Z,1022.14
2019-04-21T02:41:28.324Z,1022.13
2019-04-21T02:42:18.653Z,1022.12
2019-04-21T02:43:38.855Z,1022.11
2019-04-21T02:44:30.132Z,1022.09
2019-04-21T02:45:27.954Z,1022.12
2019-04-21T02:47:40.641Z,1022.14
2019-04-21T02:50:32.983Z,1022.15
2019-04-21T02:51:27.830Z,1022.13
2019-04-21T02:52:30.923Z,1022.06
2019-04-21T02:53:31.306Z,1022.09
2019-04-21T02:55:22.041Z,1021.99
2019-04-21T02:56:28.476Z,1022.05
2019-04-21T02:57:23.008Z,1022.03
2019-04-21T02:58:27.076Z,1022.03
2019-04-21T02:59:24.791Z,1022.09
2019-04-21T03:00:33.267Z,1022.10
2019-04-21T03:01:40.069Z,1022.03
2019-04-21T03:03:31.604Z,1022.03
2019-04-21T03:04:31.981Z,1022.03
2019-04-21T03:05:31.098Z,1022.01
2019-04-21T03:06:33.031Z,1021.95
2019-04-21T03:07:31.862Z,1021.97
2019-04-21T03:08:27.937Z,1021.92
2019-04-21T03:09:24.394Z,1021.90
2019-04-21T03:10:26.566Z,1021.89
2019-04-21T03:11:21.399Z,1021.89
2019-04-21T03:12:17.973Z,1021.89
2019-04-21T03:13:33.591Z,1021.88
2019-04-21T03:18:26.527Z,1021.80
2019-04-21T03:19:28.922Z,1021.77
2019-04-21T03:20:23.872Z,1021.74
2019-04-21T03:21:20.419Z,1021.74
2019-04-21T03:22:33.663Z,1021.75
2019-04-21T03:24:25.003Z,1021.70
2019-04-21T03:25:45.503Z,1021.70
2019-04-21T03:26:28.250Z,1021.72
2019-04-21T03:28:22.320Z,1021.72
2019-04-21T03:29:28.192Z,1021.71
2019-04-21T03:30:52.872Z,1021.72
2019-04-21T03:31:49.497Z,1021.73
2019-04-21T03:33:58.800Z,1021.66
2019-04-21T03:34:38.362Z,1021.67
2019-04-21T03:38:33.525Z,1021.62
2019-04-21T03:39:30.893Z,1021.64
2019-04-21T03:40:23.954Z,1021.57
2019-04-21T03:41:35.453Z,1021.63
2019-04-21T03:43:28.823Z,1021.67
2019-04-21T03:44:24.718Z,1021.72
2019-04-21T03:45:38.648Z,1021.67
2019-04-21T03:46:33.028Z,1021.70
2019-04-21T03:48:32.019Z,1021.64
2019-04-21T03:49:27.830Z,1021.64
2019-04-21T03:50:29.686Z,1021.62
2019-04-21T03:51:32.987Z,1021.67
2019-04-21T03:53:25.007Z,1021.63
2019-04-21T03:56:42.408Z,1021.61
2019-04-21T03:57:42.342Z,1021.63
2019-04-21T03:59:38.147Z,1021.63
2019-04-21T04:02:23.057Z,1021.60
2019-04-21T04:04:39.317Z,1021.66
2019-04-21T04:05:40.650Z,1021.65
2019-04-21T04:08:32.859Z,1021.66
2019-04-21T04:09:31.407Z,1021.66
2019-04-21T04:10:24.437Z,1021.61
2019-04-21T04:11:29.476Z,1021.66
2019-04-21T04:12:19.649Z,1021.66
2019-04-21T04:13:26.694Z,1021.66
2019-04-21T04:14:28.186Z,1021.64
2019-04-21T04:15:34.636Z,1021.64
2019-04-21T04:16:29.414Z,1021.65
2019-04-21T04:17:24.022Z,1021.64
2019-04-21T04:18:27.980Z,1021.66
2019-04-21T04:19:36.218Z,1021.55
2019-04-21T04:20:28.100Z,1021.59
2019-04-21T04:21:28.708Z,1021.57
2019-04-21T04:22:37.874Z,1021.61
2019-04-21T04:23:20.145Z,1021.56
2019-04-21T04:24:36.489Z,1021.62
2019-04-21T04:25:37.397Z,1021.57
2019-04-21T04:26:26.264Z,1021.61
2019-04-21T04:28:28.662Z,1021.61
2019-04-21T04:29:26.323Z,1021.60
2019-04-21T04:30:27.555Z,1021.58
2019-04-21T04:31:32.035Z,1021.64
2019-04-21T04:32:23.240Z,1021.56
2019-04-21T04:33:34.411Z,1021.57
2019-04-21T04:34:35.027Z,1021.60
2019-04-21T04:35:38.006Z,1021.57
2019-04-21T04:36:36.025Z,1021.58
2019-04-21T04:37:31.854Z,1021.56
2019-04-21T04:38:41.509Z,1021.59
2019-04-21T04:39:36.511Z,1021.63
2019-04-21T04:41:28.499Z,1021.66
2019-04-21T04:42:31.558Z,1021.69
2019-04-21T04:45:32.331Z,1021.68
2019-04-21T04:48:24.171Z,1021.64
2019-04-21T04:49:46.664Z,1021.67
2019-04-21T04:50:36.614Z,1021.68
2019-04-21T04:52:32.495Z,1021.66
2019-04-21T04:54:34.726Z,1021.66
2019-04-21T04:57:49.065Z,1021.63
2019-04-21T04:59:32.423Z,1021.57
2019-04-21T05:00:27.091Z,1021.60
2019-04-21T05:01:38.167Z,1021.60
2019-04-21T05:03:40.184Z,1021.58
2019-04-21T05:04:23.813Z,1021.57
2019-04-21T05:05:30.184Z,1021.63
2019-04-21T05:07:27.366Z,1021.57
2019-04-21T05:08:33.846Z,1021.57
2019-04-21T05:10:36.783Z,1021.56
2019-04-21T05:11:31.034Z,1021.59
2019-04-21T05:12:16.079Z,1021.57
2019-04-21T05:13:26.165Z,1021.55
2019-04-21T05:18:26.617Z,1021.56
2019-04-21T05:19:34.692Z,1021.57
2019-04-21T05:20:16.996Z,1021.56
2019-04-21T05:21:30.653Z,1021.54
2019-04-21T05:22:22.173Z,1021.48
2019-04-21T05:23:12.127Z,1021.53
2019-04-21T05:24:12.147Z,1021.56
2019-04-21T05:25:09.233Z,1021.50
2019-04-21T05:26:06.764Z,1021.50
2019-04-21T05:27:07.474Z,1021.54
2019-04-21T05:28:06.819Z,1021.54
2019-04-21T05:29:01.882Z,1021.51
2019-04-21T05:30:19.149Z,1021.55
2019-04-21T05:31:19.796Z,1021.52
2019-04-21T05:32:12.948Z,1021.51
2019-04-21T05:33:09.179Z,1021.58
2019-04-21T05:34:10.790Z,1021.52
2019-04-21T05:35:15.222Z,1021.54
2019-04-21T05:36:15.643Z,1021.52
2019-04-21T05:37:14.169Z,1021.57
2019-04-21T05:38:10.218Z,1021.53
2019-04-21T05:39:08.959Z,1021.52
2019-04-21T05:40:05.923Z,1021.55
2019-04-21T05:41:05.231Z,1021.53
2019-04-21T05:42:00.742Z,1021.56
2019-04-21T05:43:10.915Z,1021.56
2019-04-21T05:44:13.334Z,1021.56
2019-04-21T05:46:13.642Z,1021.58
2019-04-21T05:47:20.422Z,1021.58
2019-04-21T05:48:26.948Z,1021.57
2019-04-21T05:49:10.813Z,1021.60
2019-04-21T05:50:12.135Z,1021.53
2019-04-21T05:51:08.998Z,1021.54
2019-04-21T05:52:08.238Z,1021.58
2019-04-21T05:53:17.684Z,1021.56
2019-04-21T05:54:22.873Z,1021.61
2019-04-21T05:55:16.706Z,1021.59
2019-04-21T05:56:17.328Z,1021.58
2019-04-21T05:57:11.917Z,1021.62
2019-04-21T05:58:23.391Z,1021.60
2019-04-21T05:59:12.133Z,1021.61
2019-04-21T06:00:15.543Z,1021.63
2019-04-21T06:03:17.615Z,1021.67
2019-04-21T06:04:28.487Z,1021.62
2019-04-21T06:05:20.355Z,1021.59
2019-04-21T06:07:21.563Z,1021.63
2019-04-21T06:08:15.793Z,1021.64
2019-04-21T06:09:14.600Z,1021.61
2019-04-21T06:10:12.305Z,1021.63
2019-04-21T06:11:20.959Z,1021.59
2019-04-21T06:12:14.757Z,1021.63
2019-04-21T06:13:19.915Z,1021.57
2019-04-21T06:14:15.679Z,1021.57
2019-04-21T06:15:14.879Z,1021.57
2019-04-21T06:16:19.289Z,1021.57
2019-04-21T06:17:19.308Z,1021.56
2019-04-21T06:18:21.789Z,1021.58
2019-04-21T06:19:19.356Z,1021.58
2019-04-21T06:20:13.678Z,1021.57
2019-04-21T06:21:11.527Z,1021.57
2019-04-21T06:22:07.640Z,1021.54
2019-04-21T06:23:13.661Z,1021.55
2019-04-21T06:24:12.687Z,1021.54
2019-04-21T06:25:41.620Z,1021.54
2019-04-21T06:26:27.062Z,1021.54
2019-04-21T06:27:19.315Z,1021.57
2019-04-21T06:29:18.167Z,1021.54
2019-04-21T06:30:13.515Z,1021.54
2019-04-21T06:31:57.398Z,1021.56
2019-04-21T06:32:30.266Z,1021.56
2019-04-21T06:33:18.060Z,1021.51
2019-04-21T06:34:16.368Z,1021.54
2019-04-21T06:35:19.718Z,1021.56
2019-04-21T06:36:33.413Z,1021.55
2019-04-21T06:37:36.088Z,1021.53
2019-04-21T06:38:13.239Z,1021.56
2019-04-21T06:41:21.575Z,1021.57
2019-04-21T06:42:11.643Z,1021.56
2019-04-21T06:43:25.854Z,1021.56
2019-04-21T06:44:16.532Z,1021.53
2019-04-21T06:45:11.754Z,1021.54
2019-04-21T06:46:21.071Z,1021.57
2019-04-21T06:47:25.649Z,1021.55
2019-04-21T06:48:22.468Z,1021.53
2019-04-21T06:49:08.604Z,1021.57
2019-04-21T06:50:18.980Z,1021.50
2019-04-21T06:51:20.498Z,1021.54
2019-04-21T06:52:33.455Z,1021.52
2019-04-21T06:53:11.918Z,1021.54
2019-04-21T06:54:30.502Z,1021.50
2019-04-21T06:55:16.993Z,1021.56
2019-04-21T06:56:12.153Z,1021.52
2019-04-21T06:57:16.973Z,1021.49
2019-04-21T06:58:10.056Z,1021.50
2019-04-21T06:59:16.693Z,1021.57
2019-04-21T07:00:13.783Z,1021.53
2019-04-21T07:01:20.158Z,1021.53
2019-04-21T07:02:30.300Z,1021.54
2019-04-21T07:03:34.857Z,1021.57
2019-04-21T07:04:21.000Z,1021.56
2019-04-21T07:05:15.245Z,1021.55
2019-04-21T07:06:13.187Z,1021.53
2019-04-21T07:07:11.526Z,1021.50
2019-04-21T07:10:19.558Z,1021.49
2019-04-21T07:11:10.946Z,1021.49
2019-04-21T07:12:13.843Z,1021.51
2019-04-21T07:13:10.634Z,1021.45
2019-04-21T07:14:25.686Z,1021.47
2019-04-21T07:15:13.251Z,1021.49
2019-04-21T07:16:15.655Z,1021.48
2019-04-21T07:17:19.345Z,1021.50
2019-04-21T07:18:15.704Z,1021.47
2019-04-21T07:20:12.176Z,1021.48
2019-04-21T07:21:14.334Z,1021.54
2019-04-21T07:22:11.335Z,1021.52
2019-04-21T07:23:16.328Z,1021.55
2019-04-21T07:24:14.155Z,1021.56
2019-04-21T07:25:16.665Z,1021.54
2019-04-21T07:26:16.032Z,1021.56
2019-04-21T07:27:16.281Z,1021.55
2019-04-21T07:28:12.854Z,1021.51
2019-04-21T07:29:17.047Z,1021.47
2019-04-21T07:30:14.953Z,1021.51
2019-04-21T07:31:17.794Z,1021.47
2019-04-21T07:32:09.361Z,1021.48
2019-04-21T07:33:37.797Z,1021.46
2019-04-21T07:34:16.039Z,1021.45
2019-04-21T07:35:19.471Z,1021.47
2019-04-21T07:36:11.410Z,1021.46
2019-04-21T07:37:11.702Z,1021.48
2019-04-21T07:38:12.046Z,1021.43
2019-04-21T07:39:10.405Z,1021.45
2019-04-21T07:40:05.537Z,1021.40
2019-04-21T07:41:02.155Z,1021.42
2019-04-21T07:42:09.027Z,1021.41
2019-04-21T07:43:05.730Z,1021.43
2019-04-21T07:44:04.351Z,1021.42
2019-04-21T07:45:04.610Z,1021.42
2019-04-21T07:46:06.497Z,1021.37
2019-04-21T07:47:13.419Z,1021.35
2019-04-21T07:48:09.596Z,1021.35
2019-04-21T07:49:12.786Z,1021.36
2019-04-21T07:50:07.096Z,1021.32
2019-04-21T07:51:11.159Z,1021.30
2019-04-21T07:52:11.389Z,1021.36
2019-04-21T07:53:16.304Z,1021.31
2019-04-21T07:54:18.208Z,1021.35
2019-04-21T07:55:18.641Z,1021.33
2019-04-21T07:55:53.727Z,1021.32
2019-04-21T07:57:03.983Z,1021.31
2019-04-21T07:58:05.765Z,1021.31
2019-04-21T07:59:10.012Z,1021.28
2019-04-21T08:00:21.001Z,1021.33
2019-04-21T08:01:12.227Z,1021.28
2019-04-21T08:02:10.758Z,1021.23
2019-04-21T08:03:09.194Z,1021.26
2019-04-21T08:04:33.522Z,1021.22
2019-04-21T08:05:13.079Z,1021.26
2019-04-21T08:06:18.887Z,1021.18
2019-04-21T08:07:14.982Z,1021.27
2019-04-21T08:08:01.635Z,1021.22
2019-04-21T08:09:07.349Z,1021.20
2019-04-21T08:10:14.527Z,1021.22
2019-04-21T08:11:12.247Z,1021.15
2019-04-21T08:12:03.786Z,1021.20
2019-04-21T08:13:09.150Z,1021.19
2019-04-21T08:14:13.808Z,1021.18
2019-04-21T08:15:15.854Z,1021.12
2019-04-21T08:16:11.202Z,1021.09
2019-04-21T08:17:14.350Z,1021.05
2019-04-21T08:18:17.559Z,1021.10
2019-04-21T08:19:12.706Z,1021.13
2019-04-21T08:20:07.474Z,1021.07
2019-04-21T08:21:08.567Z,1021.07
2019-04-21T08:22:13.952Z,1021.09
2019-04-21T08:23:13.110Z,1021.02
2019-04-21T08:24:12.695Z,1021.07
2019-04-21T08:25:08.716Z,1021.02
2019-04-21T08:26:08.008Z,1021.05
2019-04-21T08:27:12.814Z,1020.99
2019-04-21T08:28:11.909Z,1021.02
2019-04-21T08:29:21.469Z,1021.02
2019-04-21T08:30:12.864Z,1020.98
2019-04-21T08:31:11.445Z,1020.98
2019-04-21T08:32:16.066Z,1020.94
2019-04-21T08:33:22.654Z,1020.94
2019-04-21T08:34:14.078Z,1020.95
2019-04-21T08:36:19.031Z,1020.95
2019-04-21T08:37:13.909Z,1020.98
2019-04-21T08:38:10.611Z,1020.90
2019-04-21T08:39:08.824Z,1020.95
2019-04-21T08:41:08.209Z,1020.91
2019-04-21T08:42:11.995Z,1020.91
2019-04-21T08:43:12.224Z,1020.88
2019-04-21T08:44:10.598Z,1020.91
2019-04-21T08:45:17.763Z,1020.90
2019-04-21T08:46:16.634Z,1020.88
2019-04-21T08:47:12.936Z,1020.88
2019-04-21T08:48:12.075Z,1020.87
2019-04-21T08:49:08.102Z,1020.95
2019-04-21T08:50:08.456Z,1020.89
2019-04-21T08:51:22.078Z,1020.87
2019-04-21T08:52:15.253Z,1020.86
2019-04-21T08:53:07.971Z,1020.85
2019-04-21T08:54:09.323Z,1020.85
2019-04-21T08:55:15.247Z,1020.88
2019-04-21T08:56:12.373Z,1020.85
2019-04-21T08:57:10.383Z,1020.82
2019-04-21T08:58:15.744Z,1020.86
2019-04-21T08:59:17.145Z,1020.81
2019-04-21T09:00:16.360Z,1020.80
2019-04-21T09:01:15.260Z,1020.74
2019-04-21T09:02:06.299Z,1020.74
2019-04-21T09:03:06.486Z,1020.71
2019-04-21T09:04:11.640Z,1020.73
2019-04-21T09:05:14.186Z,1020.72
2019-04-21T09:06:17.604Z,1020.72
2019-04-21T09:08:15.281Z,1020.73
2019-04-21T09:09:11.318Z,1020.67
2019-04-21T09:10:03.075Z,1020.65
2019-04-21T09:11:05.691Z,1020.65
2019-04-21T09:12:07.262Z,1020.62
2019-04-21T09:13:04.527Z,1020.61
2019-04-21T09:14:07.302Z,1020.60
2019-04-21T09:15:08.094Z,1020.65
2019-04-21T09:16:03.801Z,1020.60
2019-04-21T09:17:03.273Z,1020.60
2019-04-21T09:18:04.976Z,1020.58
2019-04-21T09:19:04.386Z,1020.56
2019-04-21T09:20:13.611Z,1020.60
2019-04-21T09:21:06.127Z,1020.60
2019-04-21T09:22:05.820Z,1020.62
2019-04-21T09:23:06.372Z,1020.58
2019-04-21T09:24:11.626Z,1020.58
2019-04-21T09:25:03.376Z,1020.57
2019-04-21T09:26:05.476Z,1020.55
2019-04-21T09:27:03.507Z,1020.52
2019-04-21T09:28:09.378Z,1020.59
2019-04-21T09:29:00.701Z,1020.55
2019-04-21T09:29:54.046Z,1020.53
2019-04-21T09:30:53.439Z,1020.46
2019-04-21T09:31:50.270Z,1020.48
2019-04-21T09:32:53.155Z,1020.49
2019-04-21T09:33:51.967Z,1020.46
2019-04-21T09:34:49.590Z,1020.46
2019-04-21T09:35:55.551Z,1020.40
2019-04-21T09:36:54.439Z,1020.43
2019-04-21T09:37:56.177Z,1020.43
2019-04-21T09:38:56.127Z,1020.38
2019-04-21T09:39:51.858Z,1020.33
2019-04-21T09:40:51.345Z,1020.36
2019-04-21T09:41:53.488Z,1020.30
2019-04-21T09:42:55.975Z,1020.29
2019-04-21T09:43:52.111Z,1020.30
2019-04-21T09:44:53.776Z,1020.26
2019-04-21T09:45:47.689Z,1020.26
2019-04-21T09:46:52.354Z,1020.25
2019-04-21T09:47:59.004Z,1020.24
2019-04-21T09:48:55.631Z,1020.20
2019-04-21T09:49:49.445Z,1020.18
2019-04-21T09:50:48.017Z,1020.16
2019-04-21T09:51:48.287Z,1020.17
2019-04-21T09:52:54.340Z,1020.13
2019-04-21T09:53:56.466Z,1020.21
2019-04-21T09:54:58.303Z,1020.16
2019-04-21T09:55:54.794Z,1020.16
2019-04-21T09:56:54.973Z,1020.09
2019-04-21T09:57:53.572Z,1020.10
2019-04-21T09:58:53.237Z,1020.07
2019-04-21T09:59:53.864Z,1020.00
2019-04-21T10:01:01.122Z,1019.97
2019-04-21T10:01:58.965Z,1019.99
2019-04-21T10:02:57.897Z,1019.93
2019-04-21T10:03:53.713Z,1020.00
2019-04-21T10:04:48.475Z,1020.00
2019-04-21T10:05:47.673Z,1020.00
2019-04-21T10:06:47.655Z,1019.97
2019-04-21T10:07:48.842Z,1019.93
2019-04-21T10:08:50.426Z,1019.89
2019-04-21T10:09:48.423Z,1019.91
2019-04-21T10:10:48.980Z,1019.91
2019-04-21T10:11:48.150Z,1019.85
2019-04-21T10:12:47.737Z,1019.87
2019-04-21T10:13:48.611Z,1019.83
2019-04-21T10:14:47.454Z,1019.80
2019-04-21T10:15:48.549Z,1019.82
2019-04-21T10:16:47.364Z,1019.80
2019-04-21T10:17:47.477Z,1019.78
2019-04-21T10:18:48.160Z,1019.82
2019-04-21T10:19:48.448Z,1019.82
2019-04-21T10:20:47.309Z,1019.83
2019-04-21T10:21:47.865Z,1019.81
2019-04-21T10:22:47.279Z,1019.74
2019-04-21T10:23:47.951Z,1019.78
2019-04-21T10:24:48.719Z,1019.77
2019-04-21T10:25:48.473Z,1019.66
2019-04-21T10:26:47.272Z,1019.68
2019-04-21T10:27:47.315Z,1019.54
2019-04-21T10:28:47.219Z,1019.56
2019-04-21T10:29:48.747Z,1019.56
2019-04-21T10:30:47.199Z,1019.57
2019-04-21T10:31:48.154Z,1019.60
2019-04-21T10:32:48.364Z,1019.56
2019-04-21T10:33:48.341Z,1019.58
2019-04-21T10:34:47.545Z,1019.56
2019-04-21T10:35:47.147Z,1019.54
2019-04-21T10:36:47.152Z,1019.53
2019-04-21T10:38:01.779Z,1019.48
2019-04-21T10:38:51.692Z,1019.49
2019-04-21T10:39:49.539Z,1019.46
2019-04-21T10:40:47.588Z,1019.44
2019-04-21T10:41:47.658Z,1019.44
2019-04-21T10:42:48.122Z,1019.47
2019-04-21T10:43:47.163Z,1019.50
2019-04-21T10:44:47.272Z,1019.49
2019-04-21T10:45:47.045Z,1019.46
2019-04-21T10:46:48.973Z,1019.40
2019-04-21T10:47:47.273Z,1019.40
2019-04-21T10:48:47.008Z,1019.40
2019-04-21T10:49:47.003Z,1019.45
2019-04-21T10:50:47.276Z,1019.43
2019-04-21T10:51:46.995Z,1019.42
2019-04-21T10:52:46.977Z,1019.42
2019-04-21T10:53:50.883Z,1019.37
2019-04-21T10:55:08.392Z,1019.37
2019-04-21T10:55:59.045Z,1019.31
2019-04-21T10:56:49.202Z,1019.32
2019-04-21T10:57:46.914Z,1019.28
2019-04-21T10:58:46.901Z,1019.25
2019-04-21T10:59:49.456Z,1019.27
2019-04-21T11:00:48.459Z,1019.28
2019-04-21T11:01:47.150Z,1019.28
2019-04-21T11:02:46.863Z,1019.22
2019-04-21T11:03:46.852Z,1019.25
2019-04-21T11:04:47.027Z,1019.19
2019-04-21T11:05:46.830Z,1019.19
2019-04-21T11:06:46.841Z,1019.17
2019-04-21T11:08:02.459Z,1019.11
2019-04-21T11:08:52.068Z,1019.09
2019-04-21T11:09:47.782Z,1019.09
2019-04-21T11:10:47.805Z,1019.09
2019-04-21T11:11:49.538Z,1019.04
2019-04-21T11:12:47.849Z,1019.06
2019-04-21T11:13:46.748Z,1019.07
2019-04-21T11:14:47.216Z,1019.04
2019-04-21T11:15:47.505Z,1019.08
2019-04-21T11:16:48.042Z,1019.00
2019-04-21T11:17:47.310Z,1019.04
2019-04-21T11:18:48.138Z,1018.97
2019-04-21T11:19:46.695Z,1018.91
2019-04-21T11:20:46.973Z,1018.93
2019-04-21T11:21:47.062Z,1018.88
2019-04-21T11:22:47.323Z,1018.89
2019-04-21T11:23:47.931Z,1018.89
2019-04-21T11:24:47.056Z,1018.86
2019-04-21T11:25:46.616Z,1018.84
2019-04-21T11:26:47.723Z,1018.88
2019-04-21T11:27:47.047Z,1018.85
2019-04-21T11:28:47.273Z,1018.84
2019-04-21T11:29:47.449Z,1018.82
2019-04-21T11:30:46.704Z,1018.86
2019-04-21T11:31:47.304Z,1018.80
2019-04-21T11:32:47.779Z,1018.73
2019-04-21T11:33:47.150Z,1018.73
2019-04-21T11:34:47.188Z,1018.77
2019-04-21T11:35:46.511Z,1018.75
2019-04-21T11:36:46.513Z,1018.74
2019-04-21T11:37:46.490Z,1018.71
2019-04-21T11:39:02.350Z,1018.72
2019-04-21T11:39:55.306Z,1018.71
2019-04-21T11:40:47.601Z,1018.69
2019-04-21T11:41:47.749Z,1018.68
2019-04-21T11:42:46.441Z,1018.73
2019-04-21T11:43:46.456Z,1018.73
2019-04-21T11:44:47.154Z,1018.68
2019-04-21T11:45:46.412Z,1018.64
2019-04-21T11:46:46.674Z,1018.69
2019-04-21T11:47:46.389Z,1018.66
2019-04-21T11:48:46.399Z,1018.61
2019-04-21T11:49:47.212Z,1018.62
2019-04-21T11:50:46.692Z,1018.60
2019-04-21T11:51:46.975Z,1018.64
2019-04-21T11:52:47.316Z,1018.58
2019-04-21T11:53:46.615Z,1018.63
2019-04-21T11:54:46.812Z,1018.59
2019-04-21T11:55:48.559Z,1018.53
2019-04-21T11:56:46.307Z,1018.51
2019-04-21T11:57:49.482Z,1018.53
2019-04-21T11:58:46.286Z,1018.53
2019-04-21T11:59:46.259Z,1018.49
2019-04-21T12:00:47.451Z,1018.50
2019-04-21T12:01:47.545Z,1018.47
2019-04-21T12:02:46.230Z,1018.50
2019-04-21T12:03:47.513Z,1018.52
2019-04-21T12:04:47.465Z,1018.45
2019-04-21T12:05:47.627Z,1018.48
2019-04-21T12:06:47.653Z,1018.49
2019-04-21T12:07:47.175Z,1018.43
2019-04-21T12:08:49.410Z,1018.45
2019-04-21T12:09:47.920Z,1018.39
2019-04-21T12:10:47.209Z,1018.40
2019-04-21T12:11:47.328Z,1018.34
2019-04-21T12:12:47.454Z,1018.36
2019-04-21T12:13:46.112Z,1018.35
2019-04-21T12:14:46.097Z,1018.37
2019-04-21T12:15:47.151Z,1018.35
2019-04-21T12:16:46.777Z,1018.34
2019-04-21T12:17:46.092Z,1018.33
2019-04-21T12:18:47.194Z,1018.29
2019-04-21T12:19:46.231Z,1018.27
2019-04-21T12:20:47.033Z,1018.27
2019-04-21T12:21:57.930Z,1018.23
2019-04-21T12:22:47.411Z,1018.28
2019-04-21T12:23:46.000Z,1018.26
2019-04-21T12:24:47.104Z,1018.28
2019-04-21T12:25:47.266Z,1018.22
2019-04-21T12:26:46.338Z,1018.21
2019-04-21T12:27:45.964Z,1018.22
2019-04-21T12:28:46.085Z,1018.16
2019-04-21T12:29:46.127Z,1018.15
2019-04-21T12:30:45.925Z,1018.11
2019-04-21T12:31:45.937Z,1018.12
2019-04-21T12:32:46.318Z,1018.12
2019-04-21T12:33:45.969Z,1018.12
2019-04-21T12:34:48.508Z,1018.11
2019-04-21T12:35:46.041Z,1018.12
2019-04-21T12:36:46.508Z,1018.08
2019-04-21T12:37:46.886Z,1018.06
2019-04-21T12:38:50.936Z,1018.10
2019-04-21T12:39:46.841Z,1018.05
2019-04-21T12:40:46.560Z,1018.02
2019-04-21T12:41:46.668Z,1017.99
2019-04-21T12:42:45.807Z,1018.00
2019-04-21T12:43:46.605Z,1018.00
2019-04-21T12:44:45.786Z,1017.93
2019-04-21T12:45:46.059Z,1017.97
2019-04-21T12:46:45.778Z,1017.91
2019-04-21T12:47:48.609Z,1017.88
2019-04-21T12:48:46.146Z,1017.86
2019-04-21T12:49:45.738Z,1017.84
2019-04-21T12:50:45.859Z,1017.80
2019-04-21T12:51:46.098Z,1017.82
2019-04-21T12:52:45.727Z,1017.80
2019-04-21T12:53:45.712Z,1017.83
2019-04-21T12:54:45.890Z,1017.80
2019-04-21T12:55:46.664Z,1017.77
2019-04-21T12:56:45.708Z,1017.71
2019-04-21T12:57:45.652Z,1017.73
2019-04-21T12:58:46.974Z,1017.72
2019-04-21T12:59:46.702Z,1017.67
2019-04-21T13:00:47.056Z,1017.66
2019-04-21T13:01:45.620Z,1017.62
2019-04-21T13:02:45.653Z,1017.64
2019-04-21T13:03:45.918Z,1017.56
2019-04-21T13:04:46.129Z,1017.66
2019-04-21T13:05:45.563Z,1017.59
2019-04-21T13:06:45.784Z,1017.59
2019-04-21T13:07:45.700Z,1017.52
2019-04-21T13:08:53.339Z,1017.57
2019-04-21T13:09:46.528Z,1017.47
2019-04-21T13:10:46.429Z,1017.54
2019-04-21T13:11:46.749Z,1017.50